Time;durP1;ratioP1;P1;durP2;ratioP2;P2;SDS_P1;SDS_P2;PMS_P1;PMS_P2;Temp;Humidity;BMP_temperature;BMP_pressure;BME280_temperature;BME280_humidity;BME280_pressure;Samples;Min_cycle;Max_cycle;Signal;HPM_P1;HPM_P2
2020/12/17 00:00:51;;;;;;;51.60;12.88;;;3.40;99.90;;;;;;4993497;28;20444;-75
2020/12/17 00:03:17;;;;;;;81.82;12.70;;;3.50;99.90;;;;;;5010945;28;20025;-76
2020/12/17 00:05:43;;;;;;;99.00;12.55;;;3.60;99.90;;;;;;5010888;28;20026;-76
2020/12/17 00:08:08;;;;;;;154.45;15.27;;;3.50;99.90;;;;;;5010904;28;20103;-75
2020/12/17 00:10:36;;;;;;;183.77;15.98;;;3.00;99.90;;;;;;5009760;28;20057;-75
2020/12/17 00:13:02;;;;;;;41.00;12.13;;;3.10;99.90;;;;;;4993370;28;20022;-76
2020/12/17 00:15:28;;;;;;;129.63;15.25;;;3.10;99.90;;;;;;5009702;28;20041;-75
2020/12/17 00:17:54;;;;;;;123.20;16.73;;;3.20;99.90;;;;;;5011125;28;20620;-75
2020/12/17 00:20:22;;;;;;;90.40;13.90;;;3.20;99.90;;;;;;5013011;28;20105;-76
2020/12/17 00:22:48;;;;;;;101.63;15.18;;;3.20;99.90;;;;;;5014651;28;20474;-76
2020/12/17 00:25:18;;;;;;;79.15;14.07;;;3.40;99.90;;;;;;4996678;28;20029;-76
2020/12/17 00:27:45;;;;;;;124.93;14.55;;;3.40;99.90;;;;;;4997142;28;20080;-76
2020/12/17 00:30:13;;;;;;;106.22;14.27;;;3.30;99.90;;;;;;5013139;28;20026;-75
2020/12/17 00:32:44;;;;;;;86.97;13.05;;;3.30;99.90;;;;;;5010601;23;20069;-75
2020/12/17 00:35:11;;;;;;;60.95;13.80;;;3.10;99.90;;;;;;5014157;28;20100;-75
2020/12/17 00:37:37;;;;;;;138.63;14.82;;;3.20;99.90;;;;;;5013105;28;20374;-75
2020/12/17 00:40:05;;;;;;;81.35;12.75;;;3.10;99.90;;;;;;5014345;28;20022;-75
2020/12/17 00:42:31;;;;;;;101.65;14.13;;;3.10;99.90;;;;;;4996581;28;20040;-75
2020/12/17 00:44:57;;;;;;;73.93;14.45;;;3.10;99.90;;;;;;5012485;28;20022;-76
2020/12/17 00:47:28;;;;;;;162.85;14.60;;;3.30;99.90;;;;;;5014107;28;20022;-76
2020/12/17 00:49:54;;;;;;;174.65;16.98;;;3.10;99.90;;;;;;5014369;28;20018;-75
2020/12/17 00:52:22;;;;;;;141.60;13.95;;;3.10;99.90;;;;;;5013439;28;20083;-76
2020/12/17 00:54:48;;;;;;;72.25;12.27;;;3.10;99.90;;;;;;5012798;28;20059;-76
2020/12/17 00:57:14;;;;;;;61.58;12.52;;;3.10;99.90;;;;;;5012765;28;20117;-75
2020/12/17 00:59:39;;;;;;;147.27;13.68;;;3.20;99.90;;;;;;5012690;28;20485;-76
2020/12/17 01:02:05;;;;;;;106.63;13.38;;;3.30;99.90;;;;;;5012366;28;20064;-76
2020/12/17 01:04:31;;;;;;;136.88;14.82;;;3.40;99.90;;;;;;5013609;28;20111;-75
2020/12/17 01:06:56;;;;;;;80.80;14.38;;;3.40;99.90;;;;;;5012480;28;20022;-76
2020/12/17 01:09:22;;;;;;;95.35;11.50;;;3.30;99.90;;;;;;5013638;28;20410;-75
2020/12/17 01:11:48;;;;;;;79.78;12.23;;;3.20;99.90;;;;;;5013291;28;20026;-75
2020/12/17 01:14:14;;;;;;;37.25;11.45;;;3.00;99.90;;;;;;5013405;28;20026;-76
2020/12/17 01:16:39;;;;;;;66.10;13.15;;;2.90;99.90;;;;;;5011890;28;20021;-76
2020/12/17 01:19:05;;;;;;;26.67;10.40;;;2.80;99.90;;;;;;5013465;28;20474;-76
2020/12/17 01:24:06;;;;;;;38.90;11.15;;;2.70;99.90;;;;;;4759924;23;20065;-75
2020/12/17 01:26:32;;;;;;;42.90;10.88;;;2.70;99.90;;;;;;5013071;28;20477;-75
2020/12/17 01:28:58;;;;;;;42.60;12.23;;;2.50;99.90;;;;;;5013102;28;20018;-74
2020/12/17 01:31:24;;;;;;;31.20;11.65;;;2.60;99.90;;;;;;5011346;28;20030;-76
2020/12/17 01:33:49;;;;;;;105.60;10.90;;;2.50;99.90;;;;;;5013133;28;20030;-75
2020/12/17 01:36:15;;;;;;;60.00;13.43;;;2.40;99.90;;;;;;5012861;28;20037;-74
2020/12/17 01:38:41;;;;;;;23.70;11.20;;;2.30;99.90;;;;;;5011689;28;20026;-76
2020/12/17 01:41:11;;;;;;;60.42;11.10;;;2.30;99.90;;;;;;4995443;28;20026;-75
2020/12/17 01:43:40;;;;;;;36.38;11.52;;;2.30;99.90;;;;;;5013164;28;20025;-76
2020/12/17 01:46:06;;;;;;;56.25;11.93;;;2.20;99.90;;;;;;5012347;28;20113;-74
2020/12/17 01:48:33;;;;;;;97.10;11.07;;;2.10;99.90;;;;;;4995232;28;20037;-76
2020/12/17 01:50:59;;;;;;;33.03;10.63;;;2.20;99.90;;;;;;5012712;28;20037;-75
2020/12/17 01:53:25;;;;;;;60.25;11.90;;;2.40;99.90;;;;;;5012473;28;20103;-75
2020/12/17 01:55:55;;;;;;;58.30;11.27;;;2.50;99.90;;;;;;5012728;28;20418;-75
2020/12/17 01:58:26;;;;;;;55.45;12.38;;;2.40;99.90;;;;;;5011272;28;20209;-75
2020/12/17 02:00:55;;;;;;;43.37;10.53;;;2.10;99.90;;;;;;4995017;28;20107;-75
2020/12/17 02:03:21;;;;;;;65.97;11.35;;;2.10;99.90;;;;;;5012348;28;20046;-74
2020/12/17 02:05:48;;;;;;;44.85;10.48;;;2.10;99.90;;;;;;5012430;28;20033;-75
2020/12/17 02:08:17;;;;;;;31.98;9.82;;;2.20;99.90;;;;;;5012523;28;20010;-75
2020/12/17 02:10:42;;;;;;;13.20;9.48;;;2.00;99.90;;;;;;5011395;28;20068;-75
2020/12/17 02:13:08;;;;;;;61.75;11.88;;;2.10;99.90;;;;;;5012325;28;20054;-76
2020/12/17 02:15:34;;;;;;;38.33;10.95;;;2.10;99.90;;;;;;5011037;28;20109;-75
2020/12/17 02:18:00;;;;;;;28.88;10.40;;;2.10;99.90;;;;;;5012165;28;20026;-74
2020/12/17 02:20:26;;;;;;;39.28;11.32;;;2.10;99.90;;;;;;5011037;28;20057;-74
2020/12/17 02:22:52;;;;;;;79.93;12.25;;;2.30;99.90;;;;;;5010838;28;20041;-75
2020/12/17 02:25:18;;;;;;;43.00;10.43;;;2.20;99.90;;;;;;5012213;28;20014;-75
2020/12/17 02:27:45;;;;;;;30.00;10.18;;;2.20;99.90;;;;;;5010974;28;20052;-74
2020/12/17 02:30:12;;;;;;;67.32;13.73;;;2.30;99.90;;;;;;5012829;28;20068;-76
2020/12/17 02:32:39;;;;;;;48.60;11.02;;;2.20;99.90;;;;;;4994977;28;20088;-74
2020/12/17 02:35:06;;;;;;;42.88;10.98;;;2.20;99.90;;;;;;5011066;28;20108;-76
2020/12/17 02:37:33;;;;;;;76.88;11.73;;;2.30;99.90;;;;;;5010810;28;20034;-75
2020/12/17 02:39:59;;;;;;;95.85;10.55;;;2.40;99.90;;;;;;5011807;28;20033;-76
2020/12/17 02:42:25;;;;;;;79.90;11.57;;;2.40;99.90;;;;;;5009951;28;20030;-75
2020/12/17 02:44:50;;;;;;;45.22;9.88;;;2.30;99.90;;;;;;5009888;28;20029;-75
2020/12/17 02:47:16;;;;;;;95.22;11.05;;;2.30;99.90;;;;;;5010674;28;20018;-74
2020/12/17 02:49:42;;;;;;;108.95;12.82;;;2.30;99.90;;;;;;5011878;28;20328;-75
2020/12/17 02:52:08;;;;;;;49.33;11.25;;;2.30;99.90;;;;;;5010380;28;20026;-76
2020/12/17 02:54:34;;;;;;;59.58;10.55;;;2.30;99.90;;;;;;5010187;28;20413;-76
2020/12/17 02:56:59;;;;;;;63.88;10.57;;;2.20;99.90;;;;;;5011673;28;20022;-76
2020/12/17 02:59:25;;;;;;;29.52;8.70;;;2.20;99.90;;;;;;5010204;28;20062;-76
2020/12/17 03:01:51;;;;;;;53.88;10.63;;;2.20;99.90;;;;;;5010286;28;20029;-75
2020/12/17 03:04:16;;;;;;;61.72;11.07;;;2.20;99.90;;;;;;5011314;28;20045;-75
2020/12/17 03:06:42;;;;;;;65.22;11.50;;;2.30;99.90;;;;;;5011508;28;20121;-75
2020/12/17 03:09:08;;;;;;;45.58;9.05;;;2.10;99.90;;;;;;5009954;28;20037;-75
2020/12/17 03:11:34;;;;;;;60.55;9.80;;;2.10;99.90;;;;;;5011446;28;20049;-76
2020/12/17 03:13:59;;;;;;;36.60;8.43;;;2.00;99.90;;;;;;5009859;28;20057;-75
2020/12/17 03:16:25;;;;;;;47.80;7.55;;;1.90;99.90;;;;;;5011450;28;20030;-75
2020/12/17 03:18:51;;;;;;;27.50;8.32;;;1.80;99.90;;;;;;4993630;28;20039;-75
2020/12/17 03:21:17;;;;;;;21.35;8.32;;;1.90;99.90;;;;;;5011200;28;20113;-75
2020/12/17 03:23:43;;;;;;;32.17;9.07;;;1.80;99.90;;;;;;4993719;28;20030;-75
2020/12/17 03:26:08;;;;;;;22.00;8.00;;;1.90;99.90;;;;;;5009659;28;20385;-75
2020/12/17 03:28:34;;;;;;;30.35;8.18;;;2.00;99.90;;;;;;5009878;28;20029;-75
2020/12/17 03:31:00;;;;;;;33.83;9.63;;;2.00;99.90;;;;;;5010044;28;20477;-75
2020/12/17 03:33:26;;;;;;;53.65;9.57;;;2.00;99.90;;;;;;5011301;28;20026;-75
2020/12/17 03:35:52;;;;;;;17.42;8.15;;;1.70;99.90;;;;;;5011192;28;20048;-75
2020/12/17 03:38:18;;;;;;;36.40;10.07;;;1.40;99.90;;;;;;4993761;28;20056;-75
2020/12/17 03:40:43;;;;;;;28.67;9.25;;;1.40;99.90;;;;;;5010896;28;20030;-75
2020/12/17 03:43:09;;;;;;;59.05;10.23;;;1.60;99.90;;;;;;5011262;28;20026;-76
2020/12/17 03:45:35;;;;;;;21.90;8.52;;;1.60;99.90;;;;;;5009611;28;20378;-76
2020/12/17 03:48:01;;;;;;;45.13;9.25;;;1.70;99.90;;;;;;4993808;28;20026;-75
2020/12/17 03:50:27;;;;;;;47.60;9.20;;;1.70;99.90;;;;;;5009503;28;20108;-75
2020/12/17 03:52:53;;;;;;;51.35;10.15;;;1.80;99.90;;;;;;5011081;28;20029;-75
2020/12/17 03:55:18;;;;;;;34.42;8.90;;;1.90;99.90;;;;;;5014815;28;20022;-74
2020/12/17 03:57:44;;;;;;;55.65;9.40;;;2.00;99.90;;;;;;5015063;28;20045;-74
2020/12/17 04:00:10;;;;;;;72.15;10.73;;;1.90;99.90;;;;;;5014753;28;20018;-75
2020/12/17 04:02:36;;;;;;;58.97;9.27;;;1.90;99.90;;;;;;5013688;28;20026;-76
2020/12/17 04:05:01;;;;;;;48.70;9.05;;;1.90;99.90;;;;;;5013588;28;20021;-75
2020/12/17 04:07:27;;;;;;;42.83;11.43;;;2.10;99.90;;;;;;5013469;28;20482;-76
2020/12/17 04:09:53;;;;;;;36.08;9.50;;;2.00;99.90;;;;;;5013696;28;20061;-76
2020/12/17 04:12:20;;;;;;;62.53;9.00;;;2.10;99.90;;;;;;5013647;28;20489;-75
2020/12/17 04:14:45;;;;;;;49.45;8.27;;;2.10;99.90;;;;;;5013929;28;20030;-75
2020/12/17 04:17:11;;;;;;;45.05;8.88;;;2.00;99.90;;;;;;5014076;28;20503;-75
2020/12/17 04:19:37;;;;;;;66.45;10.10;;;2.00;99.90;;;;;;5013812;28;20029;-74
2020/12/17 04:22:03;;;;;;;46.47;9.80;;;1.90;99.90;;;;;;5014138;28;20113;-74
2020/12/17 04:24:30;;;;;;;60.20;8.05;;;2.10;99.90;;;;;;5014529;28;20480;-76
2020/12/17 04:26:55;;;;;;;47.85;9.32;;;2.00;99.90;;;;;;5013166;28;20022;-76
2020/12/17 04:29:21;;;;;;;43.90;8.75;;;2.00;99.90;;;;;;5013160;28;20385;-76
2020/12/17 04:31:47;;;;;;;71.80;9.10;;;2.00;99.90;;;;;;4996586;28;20030;-75
2020/12/17 04:34:13;;;;;;;27.48;7.97;;;2.10;99.90;;;;;;5013132;28;20034;-76
2020/12/17 04:36:39;;;;;;;43.05;8.90;;;2.10;99.90;;;;;;5013995;28;20033;-75
2020/12/17 04:39:05;;;;;;;43.60;8.65;;;2.10;99.90;;;;;;5014173;28;20026;-75
2020/12/17 04:41:32;;;;;;;46.40;9.23;;;2.00;99.90;;;;;;5013776;28;20104;-75
2020/12/17 04:43:58;;;;;;;22.67;8.45;;;1.80;99.90;;;;;;5014111;28;20037;-75
2020/12/17 04:46:25;;;;;;;13.35;7.65;;;1.80;99.90;;;;;;5012464;28;20493;-76
2020/12/17 04:48:52;;;;;;;23.17;7.90;;;1.60;99.90;;;;;;5013782;28;20022;-76
2020/12/17 04:51:21;;;;;;;12.60;7.35;;;1.50;99.90;;;;;;4996398;28;20022;-75
2020/12/17 04:53:49;;;;;;;10.55;7.60;;;1.40;99.90;;;;;;5012595;28;20033;-76
2020/12/17 04:56:18;;;;;;;8.88;6.60;;;1.40;99.90;;;;;;5012483;28;20397;-75
2020/12/17 04:58:46;;;;;;;19.65;6.85;;;1.40;99.90;;;;;;5013655;28;20029;-75
2020/12/17 05:01:17;;;;;;;20.60;7.07;;;1.40;99.90;;;;;;5012700;28;20022;-76
2020/12/17 05:03:48;;;;;;;22.97;6.20;;;1.40;99.90;;;;;;4996137;28;20021;-76
2020/12/17 05:06:25;;;;;;;22.38;7.72;;;1.40;99.90;;;;;;5011644;28;20294;-76
2020/12/17 05:08:51;;;;;;;13.07;6.72;;;1.40;99.90;;;;;;5013426;28;20022;-76
2020/12/17 05:11:17;;;;;;;20.80;11.52;;;1.50;99.90;;;;;;5013714;28;20029;-76
2020/12/17 05:13:43;;;;;;;10.23;6.47;;;1.40;99.90;;;;;;5013239;28;20038;-76
2020/12/17 05:16:09;;;;;;;7.05;6.07;;;1.40;99.90;;;;;;5012243;28;20371;-76
2020/12/17 05:18:35;;;;;;;14.60;5.90;;;1.60;99.90;;;;;;5012170;28;20072;-76
2020/12/17 05:21:01;;;;;;;10.98;6.15;;;1.50;99.90;;;;;;5013455;28;20029;-75
2020/12/17 05:23:28;;;;;;;7.47;5.25;;;1.40;99.90;;;;;;5013287;28;20464;-75
2020/12/17 05:25:55;;;;;;;10.15;5.75;;;1.40;99.90;;;;;;5011923;28;20474;-75
2020/12/17 05:28:21;;;;;;;8.73;5.47;;;1.40;99.90;;;;;;4995411;28;20168;-76
2020/12/17 05:30:47;;;;;;;6.68;5.72;;;1.40;99.90;;;;;;5011986;28;20053;-76
2020/12/17 05:33:13;;;;;;;8.88;5.93;;;1.30;99.90;;;;;;5011853;28;20026;-76
2020/12/17 05:35:40;;;;;;;5.38;4.57;;;1.40;99.90;;;;;;5012056;28;20026;-76
2020/12/17 05:38:08;;;;;;;6.05;5.43;;;1.60;99.90;;;;;;5011562;28;20034;-76
2020/12/17 05:40:41;;;;;;;10.32;5.93;;;1.60;99.90;;;;;;5012927;28;20030;-75
2020/12/17 05:43:08;;;;;;;10.07;5.93;;;1.70;99.90;;;;;;5012960;28;20025;-76
2020/12/17 05:45:35;;;;;;;9.85;6.47;;;1.50;99.90;;;;;;5011251;28;20388;-75
2020/12/17 05:48:17;;;;;;;9.02;5.93;;;1.40;99.90;;;;;;5012931;28;20026;-76
2020/12/17 05:50:54;;;;;;;8.32;6.57;;;1.40;99.90;;;;;;5011433;28;20026;-75
2020/12/17 05:53:22;;;;;;;8.05;6.22;;;1.40;99.90;;;;;;5011608;28;20026;-75
2020/12/17 05:56:00;;;;;;;17.77;6.32;;;1.60;99.90;;;;;;5011540;28;20104;-74
2020/12/17 05:58:43;;;;;;;9.90;6.57;;;1.40;99.90;;;;;;5011616;28;20507;-75
2020/12/17 06:01:17;;;;;;;9.57;6.30;;;1.20;99.90;;;;;;5012477;28;20096;-76
2020/12/17 06:03:46;;;;;;;12.52;7.80;;;1.30;99.90;;;;;;5013362;28;20022;-75
2020/12/17 06:06:12;;;;;;;17.52;8.93;;;1.50;99.90;;;;;;5012868;28;20026;-76
2020/12/17 06:08:39;;;;;;;13.95;7.72;;;1.40;99.90;;;;;;5011430;28;20030;-76
2020/12/17 06:11:07;;;;;;;10.80;8.07;;;1.50;99.90;;;;;;5009112;28;20030;-76
2020/12/17 06:13:39;;;;;;;7.57;6.32;;;1.50;99.90;;;;;;5009026;28;20025;-76
2020/12/17 06:16:08;;;;;;;10.55;6.15;;;1.40;99.90;;;;;;5010711;28;20026;-76
2020/12/17 06:18:47;;;;;;;10.18;7.55;;;1.50;99.90;;;;;;5009738;28;20037;-76
2020/12/17 06:21:15;;;;;;;12.38;8.10;;;1.50;99.90;;;;;;5009029;28;20030;-76
2020/12/17 06:23:40;;;;;;;9.23;7.43;;;1.50;99.90;;;;;;5010649;28;20040;-77
2020/12/17 06:26:08;;;;;;;7.97;6.38;;;1.60;99.90;;;;;;5009642;28;20493;-76
2020/12/17 06:28:49;;;;;;;9.98;6.60;;;1.60;99.90;;;;;;5010894;28;20388;-75
2020/12/17 06:31:17;;;;;;;8.63;6.32;;;1.70;99.90;;;;;;5010982;28;20032;-76
2020/12/17 06:33:44;;;;;;;10.27;6.90;;;1.60;99.90;;;;;;5025212;23;20045;-74
2020/12/17 06:36:19;;;;;;;22.27;9.70;;;1.60;99.90;;;;;;5011024;28;20026;-77
2020/12/17 06:38:47;;;;;;;7.60;6.18;;;1.60;99.90;;;;;;5009847;28;20044;-77
2020/12/17 06:41:18;;;;;;;9.38;6.65;;;1.60;99.90;;;;;;5009057;28;20034;-77
2020/12/17 06:43:45;;;;;;;11.50;7.15;;;1.50;99.90;;;;;;4993489;28;20022;-77
2020/12/17 06:46:42;;;;;;;8.80;6.90;;;1.60;99.90;;;;;;5010308;28;20519;-77
2020/12/17 06:49:09;;;;;;;9.48;7.40;;;1.60;99.90;;;;;;5009618;28;20515;-76
2020/12/17 06:51:39;;;;;;;12.07;7.35;;;1.40;99.90;;;;;;5009191;28;20041;-76
2020/12/17 06:54:17;;;;;;;8.05;5.95;;;1.40;99.90;;;;;;4993237;28;20032;-76
2020/12/17 06:57:17;;;;;;;15.27;6.10;;;1.30;99.90;;;;;;5003634;28;20362;-77
2020/12/17 06:59:44;;;;;;;11.38;6.53;;;1.20;99.90;;;;;;4975087;28;20038;-74
2020/12/17 07:02:16;;;;;;;9.45;5.57;;;1.20;99.90;;;;;;5008280;28;20022;-76
2020/12/17 07:04:42;;;;;;;;;;;1.20;99.90;;;;;;5006589;28;20419;-75
2020/12/17 07:07:17;;;;;;;6.82;5.78;;;1.20;99.90;;;;;;5008864;28;19905;-74
2020/12/17 07:09:45;;;;;;;11.15;6.07;;;1.20;99.90;;;;;;5008695;28;20030;-77
2020/12/17 07:12:12;;;;;;;7.93;5.97;;;1.10;99.90;;;;;;5009226;28;20053;-75
2020/12/17 07:14:39;;;;;;;14.30;5.65;;;1.30;99.90;;;;;;4991629;28;20072;-75
2020/12/17 07:17:06;;;;;;;10.00;5.68;;;1.40;99.90;;;;;;5009122;28;20053;-75
2020/12/17 07:19:44;;;;;;;6.88;5.38;;;1.40;99.90;;;;;;5007697;28;20029;-75
2020/12/17 07:22:17;;;;;;;7.20;4.93;;;1.40;99.90;;;;;;5002241;28;20033;-75
2020/12/17 07:24:45;;;;;;;8.43;5.30;;;1.50;99.90;;;;;;5009514;28;20060;-74
2020/12/17 07:27:15;;;;;;;8.10;4.68;;;1.60;99.90;;;;;;5010143;28;20028;-75
2020/12/17 07:29:46;;;;;;;9.30;4.47;;;1.50;99.90;;;;;;5009539;28;20025;-75
2020/12/17 07:32:30;;;;;;;9.38;5.18;;;1.50;99.90;;;;;;5010399;28;20030;-75
2020/12/17 07:34:58;;;;;;;8.50;5.20;;;1.40;99.90;;;;;;4989405;28;20360;-75
2020/12/17 07:37:43;;;;;;;6.50;4.78;;;1.40;99.90;;;;;;5008744;28;20034;-74
2020/12/17 07:40:20;;;;;;;18.00;4.88;;;1.40;99.90;;;;;;5008544;28;20029;-74
2020/12/17 07:43:13;;;;;;;10.30;4.45;;;1.30;99.90;;;;;;5009680;28;20030;-75
2020/12/17 07:45:45;;;;;;;17.48;5.13;;;1.40;99.90;;;;;;5006632;28;20446;-74
2020/12/17 07:48:54;;;;;;;;;;;1.50;99.90;;;;;;5009123;28;20104;-75
2020/12/17 07:51:28;;;;;;;6.15;4.38;;;1.70;99.90;;;;;;5002370;28;19912;-75
2020/12/17 07:53:54;;;;;;;4.63;3.25;;;1.90;99.90;;;;;;4993575;28;20040;-74
2020/12/17 07:56:21;;;;;;;5.70;4.05;;;2.00;99.90;;;;;;5001493;28;20033;-75
2020/12/17 07:58:48;;;;;;;6.70;4.55;;;2.00;99.90;;;;;;4991518;28;20029;-75
2020/12/17 08:01:15;;;;;;;12.88;4.72;;;2.30;99.90;;;;;;5010846;28;20026;-75
2020/12/17 08:03:41;;;;;;;7.07;3.88;;;2.50;99.90;;;;;;5008843;28;20381;-75
2020/12/17 08:06:09;;;;;;;6.95;4.13;;;2.60;99.90;;;;;;5010781;28;20041;-76
2020/12/17 08:08:35;;;;;;;5.95;4.22;;;2.90;99.90;;;;;;4992120;28;20044;-76
2020/12/17 08:11:03;;;;;;;6.57;4.78;;;3.10;99.90;;;;;;5008835;28;20026;-77
2020/12/17 08:13:31;;;;;;;12.68;6.65;;;3.20;99.90;;;;;;5008768;28;20026;-78
2020/12/17 08:15:58;;;;;;;14.52;7.35;;;3.30;99.90;;;;;;5008731;28;20029;-78
2020/12/17 08:18:29;;;;;;;13.27;7.88;;;3.40;99.90;;;;;;5005979;28;20085;-81
2020/12/17 08:21:09;;;;;;;12.23;6.50;;;3.50;99.90;;;;;;5000773;28;20109;-77
2020/12/17 08:23:37;;;;;;;13.52;6.25;;;3.60;99.90;;;;;;4998656;28;20533;-77
2020/12/17 08:26:05;;;;;;;13.50;5.47;;;3.60;99.90;;;;;;5000403;28;20029;-77
2020/12/17 08:28:39;;;;;;;7.57;4.35;;;3.60;99.90;;;;;;5002486;28;20473;-77
2020/12/17 08:31:10;;;;;;;5.03;2.90;;;3.30;99.90;;;;;;4999691;28;20033;-76
2020/12/17 08:33:41;;;;;;;8.50;3.25;;;3.30;99.90;;;;;;5000622;28;20105;-77
2020/12/17 08:36:09;;;;;;;3.92;2.30;;;3.50;99.90;;;;;;4987489;28;20034;-77
2020/12/17 08:38:35;;;;;;;5.18;2.40;;;3.80;99.90;;;;;;4994778;28;20556;-77
2020/12/17 08:41:03;;;;;;;8.07;3.15;;;3.80;99.90;;;;;;5001351;28;20030;-76
2020/12/17 08:43:35;;;;;;;2.55;2.10;;;3.90;99.90;;;;;;5002944;28;20416;-77
2020/12/17 08:46:02;;;;;;;6.82;2.33;;;4.00;99.90;;;;;;5002752;28;20022;-77
2020/12/17 08:48:31;;;;;;;4.90;2.17;;;4.00;99.90;;;;;;4999911;28;20027;-79
2020/12/17 08:50:57;;;;;;;4.32;2.35;;;4.10;99.90;;;;;;5004333;28;20053;-78
2020/12/17 08:53:29;;;;;;;2.95;2.38;;;4.20;99.90;;;;;;5012646;28;20025;-77
2020/12/17 08:56:11;;;;;;;2.42;2.00;;;4.30;99.90;;;;;;5003476;28;20034;-84
2020/12/17 08:58:43;;;;;;;5.97;2.78;;;4.40;99.90;;;;;;4980283;28;20035;-78
2020/12/17 09:01:17;;;;;;;5.70;2.55;;;4.60;99.90;;;;;;5007192;28;20088;-79
2020/12/17 09:03:49;;;;;;;6.47;2.58;;;4.70;99.90;;;;;;5003492;28;20477;-77
2020/12/17 09:06:15;;;;;;;2.17;1.48;;;4.90;99.90;;;;;;5002506;28;20493;-77
2020/12/17 09:08:41;;;;;;;2.72;1.83;;;5.00;99.90;;;;;;4998840;28;20065;-77
2020/12/17 09:11:36;;;;;;;3.72;2.10;;;5.00;99.90;;;;;;4997088;28;20585;-76
2020/12/17 09:14:12;;;;;;;2.28;1.90;;;5.10;99.90;;;;;;4996129;28;20378;-76
2020/12/17 09:16:40;;;;;;;4.68;1.70;;;5.10;99.90;;;;;;5005666;28;20493;-77
2020/12/17 09:19:08;;;;;;;4.32;1.50;;;5.20;99.90;;;;;;4999065;28;20093;-77
2020/12/17 09:21:35;;;;;;;3.33;2.05;;;5.30;99.90;;;;;;5000829;28;20521;-78
2020/12/17 09:24:01;;;;;;;4.22;1.90;;;5.30;99.90;;;;;;4983500;28;20037;-78
2020/12/17 09:26:28;;;;;;;4.72;2.83;;;5.50;99.90;;;;;;5002017;28;20030;-76
2020/12/17 09:28:58;;;;;;;2.13;1.83;;;5.70;99.90;;;;;;5006232;28;20021;-78
2020/12/17 09:31:27;;;;;;;5.18;2.85;;;6.10;99.90;;;;;;5001483;28;20035;-77
2020/12/17 09:34:06;;;;;;;2.53;1.60;;;6.80;99.90;;;;;;4999739;28;20111;-78
2020/12/17 09:36:32;;;;;;;2.83;2.25;;;7.20;99.30;;;;;;5002504;28;20133;-76
2020/12/17 09:39:04;;;;;;;4.70;1.80;;;7.30;96.70;;;;;;4996253;28;20342;-77
2020/12/17 09:41:30;;;;;;;2.25;1.80;;;7.50;97.00;;;;;;4998838;28;20113;-78
2020/12/17 09:43:56;;;;;;;4.43;1.55;;;7.70;96.80;;;;;;4992834;28;20101;-79
2020/12/17 09:46:22;;;;;;;2.00;1.70;;;8.00;95.90;;;;;;5001854;28;20080;-77
2020/12/17 09:48:48;;;;;;;2.72;2.45;;;8.90;94.40;;;;;;5001827;28;20053;-79
2020/12/17 09:51:20;;;;;;;3.25;1.63;;;9.70;91.40;;;;;;4999836;28;20482;-77
2020/12/17 09:53:46;;;;;;;3.35;2.13;;;10.20;88.10;;;;;;4997562;28;20112;-78
2020/12/17 09:56:13;;;;;;;2.65;1.70;;;10.70;85.60;;;;;;4998422;28;20105;-77
2020/12/17 09:58:43;;;;;;;3.33;1.27;;;11.00;80.70;;;;;;4978986;28;20034;-78
2020/12/17 10:01:10;;;;;;;2.08;1.38;;;10.70;80.90;;;;;;5001753;28;20117;-77
2020/12/17 10:03:36;;;;;;;1.80;1.30;;;10.40;80.40;;;;;;5004895;28;20022;-77
2020/12/17 10:06:01;;;;;;;2.35;1.13;;;10.40;79.90;;;;;;4984501;28;20493;-76
2020/12/17 10:08:27;;;;;;;1.98;1.20;;;10.60;79.60;;;;;;4997755;28;20022;-77
2020/12/17 10:10:53;;;;;;;2.85;1.15;;;10.50;78.70;;;;;;4996876;28;20030;-77
2020/12/17 10:13:19;;;;;;;1.90;1.10;;;10.60;78.70;;;;;;5005823;28;20049;-79
2020/12/17 10:15:46;;;;;;;3.20;1.10;;;10.50;77.90;;;;;;5002085;28;20049;-76
2020/12/17 10:18:11;;;;;;;4.35;1.20;;;10.90;76.60;;;;;;5000057;28;20026;-78
2020/12/17 10:20:37;;;;;;;2.15;1.42;;;11.20;75.20;;;;;;5000075;28;20018;-79
2020/12/17 10:23:03;;;;;;;1.52;1.02;;;11.60;74.50;;;;;;4996417;28;20526;-76
2020/12/17 10:25:29;;;;;;;1.00;0.88;;;11.80;73.00;;;;;;4993718;28;20026;-79
2020/12/17 10:27:56;;;;;;;1.90;1.00;;;12.40;70.80;;;;;;5004904;28;20524;-79
2020/12/17 10:30:22;;;;;;;1.88;1.40;;;12.80;68.60;;;;;;4993363;28;20073;-77
2020/12/17 10:32:48;;;;;;;1.95;1.00;;;13.10;66.80;;;;;;5008971;28;20034;-77
2020/12/17 10:35:13;;;;;;;3.97;1.17;;;13.00;66.80;;;;;;5000764;28;20030;-80
2020/12/17 10:37:40;;;;;;;1.00;0.90;;;13.00;66.00;;;;;;4997842;28;20030;-77
2020/12/17 10:40:08;;;;;;;2.33;1.13;;;13.10;66.40;;;;;;5005334;28;20030;-77
2020/12/17 10:42:39;;;;;;;1.25;1.15;;;13.60;65.60;;;;;;4997969;28;20025;-77
2020/12/17 10:45:09;;;;;;;1.87;1.20;;;14.50;62.80;;;;;;4983701;28;20026;-77
2020/12/17 10:47:36;;;;;;;1.95;1.30;;;14.70;60.00;;;;;;5005123;28;20026;-77
2020/12/17 10:50:07;;;;;;;1.45;1.15;;;14.80;59.80;;;;;;5005443;28;20355;-77
2020/12/17 10:52:33;;;;;;;2.58;1.25;;;15.40;58.70;;;;;;4997783;28;20054;-78
2020/12/17 10:54:58;;;;;;;1.20;1.00;;;15.10;58.20;;;;;;4991666;28;20037;-78
2020/12/17 10:57:24;;;;;;;3.00;1.60;;;15.10;59.50;;;;;;4991739;28;20467;-77
2020/12/17 10:59:50;;;;;;;3.10;1.63;;;15.60;56.80;;;;;;5000004;28;20026;-78
2020/12/17 11:02:16;;;;;;;2.40;1.30;;;15.60;56.90;;;;;;5001368;28;20022;-77
2020/12/17 11:04:42;;;;;;;4.13;2.97;;;15.80;56.60;;;;;;4991068;28;20072;-77
2020/12/17 11:07:08;;;;;;;3.97;1.75;;;15.80;56.30;;;;;;4996390;28;20026;-79
2020/12/17 11:09:33;;;;;;;1.33;0.95;;;15.70;56.30;;;;;;4996499;28;20496;-77
2020/12/17 11:11:59;;;;;;;5.13;1.35;;;16.20;55.70;;;;;;4990227;28;20552;-77
2020/12/17 11:14:25;;;;;;;3.80;1.17;;;16.60;55.00;;;;;;5003909;28;20033;-77
2020/12/17 11:16:51;;;;;;;3.45;1.42;;;16.90;53.40;;;;;;5003757;28;20041;-79
2020/12/17 11:19:18;;;;;;;7.65;3.00;;;16.60;54.20;;;;;;4999506;28;20367;-79
2020/12/17 11:21:44;;;;;;;4.43;1.20;;;16.80;56.00;;;;;;4995977;28;20474;-79
2020/12/17 11:24:10;;;;;;;1.42;1.23;;;16.90;53.80;;;;;;5002953;28;20152;-80
2020/12/17 11:26:43;;;;;;;1.50;1.30;;;16.80;54.20;;;;;;4991372;28;20046;-80
2020/12/17 11:29:09;;;;;;;3.90;1.30;;;16.90;53.50;;;;;;4999171;28;20474;-78
2020/12/17 11:31:35;;;;;;;4.22;2.17;;;16.40;52.80;;;;;;4998050;28;20554;-78
2020/12/17 11:34:01;;;;;;;2.00;1.25;;;16.30;53.90;;;;;;4999900;28;20113;-78
2020/12/17 11:36:26;;;;;;;2.72;1.33;;;16.10;54.10;;;;;;5005095;28;20030;-77
2020/12/17 11:38:53;;;;;;;2.17;1.30;;;15.90;55.60;;;;;;4995093;28;20038;-78
2020/12/17 11:41:18;;;;;;;2.08;1.27;;;15.80;55.00;;;;;;4995376;28;20502;-77
2020/12/17 11:43:44;;;;;;;4.60;1.55;;;15.40;55.40;;;;;;4991599;28;20018;-77
2020/12/17 11:46:10;;;;;;;1.27;1.00;;;14.90;56.10;;;;;;4995162;28;20026;-77
2020/12/17 11:48:36;;;;;;;2.63;1.42;;;14.60;57.10;;;;;;5001116;28;20030;-78
2020/12/17 11:51:01;;;;;;;2.17;1.60;;;14.30;58.10;;;;;;5002142;28;20065;-78
2020/12/17 11:53:28;;;;;;;2.22;1.50;;;13.70;59.50;;;;;;4995707;28;20037;-77
2020/12/17 11:55:54;;;;;;;2.78;1.80;;;13.30;60.80;;;;;;5000210;28;20093;-78
2020/12/17 11:58:20;;;;;;;6.05;2.40;;;12.60;63.20;;;;;;4998328;28;20034;-77
2020/12/17 12:00:46;;;;;;;5.10;2.42;;;12.30;64.50;;;;;;4993786;28;20033;-77
2020/12/17 12:03:13;;;;;;;3.60;2.00;;;12.00;66.00;;;;;;5000405;28;20026;-77
2020/12/17 12:05:38;;;;;;;4.32;2.63;;;12.00;67.10;;;;;;4995688;28;20023;-76
2020/12/17 12:08:04;;;;;;;2.80;1.88;;;11.90;67.40;;;;;;4991940;28;20035;-77
2020/12/17 12:10:30;;;;;;;3.25;2.17;;;11.70;67.60;;;;;;4985596;28;20065;-78
2020/12/17 12:12:57;;;;;;;3.13;2.15;;;11.70;68.20;;;;;;5004391;28;20030;-77
2020/12/17 12:15:23;;;;;;;3.72;2.00;;;11.60;68.80;;;;;;5006810;28;20034;-77
2020/12/17 12:17:48;;;;;;;3.22;1.80;;;11.50;69.30;;;;;;5006051;28;20026;-78
2020/12/17 12:20:14;;;;;;;4.78;2.47;;;11.40;69.50;;;;;;5006909;28;20505;-76
2020/12/17 12:22:40;;;;;;;9.85;2.00;;;11.40;69.40;;;;;;5001270;28;20091;-77
2020/12/17 12:25:06;;;;;;;4.32;1.67;;;11.40;70.20;;;;;;5004274;28;20030;-77
2020/12/17 12:27:32;;;;;;;2.17;1.48;;;11.40;70.90;;;;;;4999457;28;20026;-77
2020/12/17 12:29:58;;;;;;;3.90;1.70;;;11.40;70.60;;;;;;5002174;28;20055;-76
2020/12/17 12:32:23;;;;;;;2.58;1.60;;;11.30;71.00;;;;;;4997355;28;20435;-76
2020/12/17 12:34:49;;;;;;;24.30;2.50;;;11.30;70.70;;;;;;5007219;28;20034;-77
2020/12/17 12:37:15;;;;;;;13.93;2.45;;;11.20;71.80;;;;;;5004530;28;20064;-76
2020/12/17 12:39:41;;;;;;;7.22;2.00;;;11.20;72.40;;;;;;5003274;28;20496;-78
2020/12/17 12:42:08;;;;;;;3.22;1.67;;;11.20;72.40;;;;;;4993243;28;20032;-79
2020/12/17 12:44:33;;;;;;;3.53;1.75;;;11.20;72.20;;;;;;5002804;28;20022;-80
2020/12/17 12:46:59;;;;;;;8.10;2.30;;;11.20;72.20;;;;;;5005556;28;20021;-78
2020/12/17 12:49:25;;;;;;;5.32;2.15;;;11.20;72.70;;;;;;5001507;28;20026;-77
2020/12/17 12:51:51;;;;;;;2.00;1.40;;;11.20;72.80;;;;;;5000293;28;20026;-77